Time;durP1;ratioP1;P1;durP2;ratioP2;P2;SDS_P1;SDS_P2;PMS_P1;PMS_P2;Temp;Humidity;BMP_temperature;BMP_pressure;BME280_temperature;BME280_humidity;BME280_pressure;Samples;Min_cycle;Max_cycle;Signal;HPM_P1;HPM_P2
2023/04/25 00:00:31;;;;;;;8.40;6.40;;;;;;;5.45;100.00;95668.88;10411214;28;20261;-66
2023/04/25 00:05:32;;;;;;;7.40;5.57;;;;;;;5.23;100.00;95663.19;10410920;28;20216;-66
2023/04/25 00:10:32;;;;;;;9.73;5.83;;;;;;;5.24;100.00;95667.41;10411411;28;20303;-66
2023/04/25 00:15:32;;;;;;;9.50;6.30;;;;;;;5.10;100.00;95673.13;10410759;28;20193;-66
2023/04/25 00:20:33;;;;;;;10.00;6.00;;;;;;;5.06;100.00;95664.00;10410867;28;20285;-66
2023/04/25 00:25:33;;;;;;;10.03;6.27;;;;;;;4.92;100.00;95663.56;10411210;28;20579;-66
2023/04/25 00:30:33;;;;;;;9.13;6.23;;;;;;;4.95;100.00;95672.84;10418932;28;20205;-66
2023/04/25 00:35:34;;;;;;;9.87;6.30;;;;;;;4.89;100.00;95679.41;10419070;28;20299;-66
2023/04/25 00:40:34;;;;;;;8.53;6.37;;;;;;;4.84;100.00;95673.88;10418111;28;20232;-66
2023/04/25 00:45:37;;;;;;;11.70;7.10;;;;;;;4.78;100.00;95656.28;10418706;28;20251;-66
2023/04/25 00:50:38;;;;;;;9.87;6.77;;;;;;;4.87;100.00;95660.59;10418098;28;20292;-66
2023/04/25 00:55:38;;;;;;;8.23;6.33;;;;;;;4.76;100.00;95660.78;10400042;28;20287;-66
2023/04/25 01:00:41;;;;;;;11.50;6.50;;;;;;;4.82;100.00;95658.44;10399713;28;20263;-66
2023/04/25 01:05:41;;;;;;;8.37;5.90;;;;;;;4.83;100.00;95664.44;10399877;28;20220;-66
2023/04/25 01:10:42;;;;;;;10.83;5.70;;;;;;;4.98;100.00;95659.56;10399807;28;20761;-65
2023/04/25 01:15:42;;;;;;;8.17;6.10;;;;;;;4.91;100.00;95661.91;10417259;28;20188;-65
2023/04/25 01:20:43;;;;;;;6.77;5.93;;;;;;;4.79;100.00;95657.91;10416995;28;20209;-65
2023/04/25 01:25:44;;;;;;;11.80;6.50;;;;;;;4.66;100.00;95654.88;10399348;28;20233;-66
2023/04/25 01:30:45;;;;;;;8.03;6.13;;;;;;;4.49;100.00;95652.09;10398687;28;20620;-66
2023/04/25 01:35:47;;;;;;;11.50;6.30;;;;;;;4.25;100.00;95650.81;10382949;28;20230;-65
2023/04/25 01:40:48;;;;;;;11.77;6.73;;;;;;;4.15;100.00;95649.22;10415321;28;20232;-65
2023/04/25 01:45:49;;;;;;;9.20;6.83;;;;;;;4.07;100.00;95652.53;10398273;28;20606;-65
2023/04/25 01:50:50;;;;;;;10.57;6.47;;;;;;;4.05;100.00;95657.88;10397783;28;20204;-65
2023/04/25 01:55:51;;;;;;;11.37;7.77;;;;;;;3.77;100.00;95657.00;10397370;28;20510;-65
2023/04/25 02:00:55;;;;;;;10.03;7.10;;;;;;;3.63;100.00;95666.03;10397651;28;20212;-66
2023/04/25 02:05:58;;;;;;;15.23;8.20;;;;;;;3.42;100.00;95668.78;10397489;28;20231;-65
2023/04/25 02:10:59;;;;;;;8.80;6.97;;;;;;;3.41;100.00;95661.16;10397428;28;20262;-65
2023/04/25 02:16:05;;;;;;;9.07;7.07;;;;;;;3.19;100.00;95663.09;10415226;28;20181;-65
2023/04/25 02:21:06;;;;;;;11.63;7.50;;;;;;;3.02;100.00;95649.06;10414668;28;20213;-65
2023/04/25 02:26:06;;;;;;;11.87;7.70;;;;;;;2.98;100.00;95650.28;10397011;28;20216;-66
2023/04/25 02:31:06;;;;;;;10.33;6.53;;;;;;;3.06;100.00;95645.22;10396535;28;20258;-66
2023/04/25 02:36:07;;;;;;;12.67;7.60;;;;;;;3.03;100.00;95648.94;10414515;28;20188;-66
2023/04/25 02:41:07;;;;;;;11.57;7.20;;;;;;;2.95;100.00;95642.78;10396191;28;20240;-67
2023/04/25 02:46:07;;;;;;;8.97;7.20;;;;;;;3.09;100.00;95649.31;10396078;28;20311;-67
2023/04/25 02:51:08;;;;;;;394.40;119.93;;;;;;;3.03;100.00;95648.09;10356701;28;20217;-67
2023/04/25 02:56:08;;;;;;;28.00;15.47;;;;;;;3.17;100.00;95650.28;10354999;28;20297;-67
2023/04/25 03:01:09;;;;;;;9.33;7.17;;;;;;;3.13;100.00;95640.34;10355069;28;20300;-67
2023/04/25 03:06:09;;;;;;;13.97;7.63;;;;;;;3.26;100.00;95643.44;10407799;28;20594;-66
2023/04/25 03:11:11;;;;;;;16.20;7.47;;;;;;;3.51;100.00;95646.44;10395218;28;20209;-66
2023/04/25 03:16:11;;;;;;;9.87;6.60;;;;;;;3.39;100.00;95641.41;10412916;28;20192;-66
2023/04/25 03:21:11;;;;;;;10.07;6.67;;;;;;;3.39;100.00;95640.59;10410886;28;20307;-65
2023/04/25 03:26:12;;;;;;;11.90;7.07;;;;;;;3.62;100.00;95633.31;10394780;28;20702;-65
2023/04/25 03:31:12;;;;;;;12.07;7.40;;;;;;;3.60;100.00;95634.41;10394241;28;20592;-65
2023/04/25 03:36:14;;;;;;;13.30;7.27;;;;;;;3.77;100.00;95636.28;10394447;28;20192;-66
2023/04/25 03:41:14;;;;;;;9.53;6.83;;;;;;;3.90;100.00;95631.59;10377814;28;20741;-65
2023/04/25 03:46:18;;;;;;;10.13;6.70;;;;;;;3.73;100.00;95622.78;10410612;28;20294;-66
2023/04/25 03:51:19;;;;;;;14.43;8.00;;;;;;;4.03;100.00;95633.06;10394051;28;20242;-66
2023/04/25 03:56:20;;;;;;;12.57;6.73;;;;;;;4.27;100.00;95623.00;10393505;28;20188;-66
2023/04/25 04:01:25;;;;;;;21.30;7.50;;;;;;;4.14;100.00;95627.69;10409602;28;20286;-66
2023/04/25 04:06:25;;;;;;;10.40;7.53;;;;;;;4.43;100.00;95619.75;10409882;28;20765;-66
2023/04/25 04:11:33;;;;;;;12.83;6.90;;;;;;;4.51;100.00;95621.63;10409783;28;20219;-66
2023/04/25 04:16:33;;;;;;;11.63;8.07;;;;;;;4.47;100.00;95613.31;10393618;28;20188;-65
2023/04/25 04:21:34;;;;;;;10.80;6.30;;;;;;;4.72;100.00;95618.75;10392985;28;20208;-66
2023/04/25 04:26:35;;;;;;;8.97;6.50;;;;;;;4.72;100.00;95623.16;10393279;28;20219;-66
2023/04/25 04:31:55;;;;;;;9.33;5.97;;;;;;;4.79;100.00;95625.00;10410531;28;20567;-66
2023/04/25 04:36:56;;;;;;;10.37;6.77;;;;;;;4.88;100.00;95632.84;10410976;28;20188;-66
2023/04/25 04:41:57;;;;;;;9.87;6.27;;;;;;;5.13;100.00;95629.53;10409044;28;20235;-63
2023/04/25 04:47:20;;;;;;;11.03;6.93;;;;;;;5.24;100.00;95623.28;10392698;28;20269;-66
2023/04/25 04:52:31;;;;;;;11.77;6.70;;;;;;;5.45;100.00;95622.97;10407323;28;20204;-66
2023/04/25 04:57:50;;;;;;;9.63;6.80;;;;;;;5.35;100.00;95620.44;10410314;28;20582;-66
2023/04/25 05:03:11;;;;;;;9.00;5.97;;;;;;;5.66;100.00;95635.56;10408679;28;20258;-66
2023/04/25 05:08:24;;;;;;;9.67;6.33;;;;;;;5.60;100.00;95637.97;10408997;28;20219;-66
2023/04/25 05:13:39;;;;;;;10.07;6.53;;;;;;;5.69;100.00;95639.66;10409664;28;20196;-65
2023/04/25 05:18:52;;;;;;;10.03;5.90;;;;;;;5.77;100.00;95637.09;10358964;28;20217;-65
2023/04/25 05:24:02;;;;;;;10.03;6.13;;;;;;;5.76;100.00;95629.47;10358357;28;20271;-66
2023/04/25 05:29:21;;;;;;;11.87;7.53;;;;;;;5.82;100.00;95627.09;10376066;28;20221;-66
2023/04/25 05:34:34;;;;;;;11.63;7.93;;;;;;;5.70;100.00;95629.13;10358171;28;20672;-66
2023/04/25 05:39:39;;;;;;;11.30;6.10;;;;;;;5.82;100.00;95628.84;10357918;28;20240;-65
2023/04/25 05:44:58;;;;;;;11.83;5.67;;;;;;;5.87;100.00;95632.63;10410376;28;20694;-64
2023/04/25 05:50:18;;;;;;;9.13;5.73;;;;;;;5.25;100.00;95627.50;10415352;28;20252;-65
2023/04/25 05:55:25;;;;;;;7.23;4.70;;;;;;;5.59;100.00;95626.78;10398092;28;20181;-65
2023/04/25 06:00:26;;;;;;;10.77;6.30;;;;;;;5.70;100.00;95629.13;10392840;28;20868;-65
2023/04/25 06:05:27;;;;;;;11.10;6.70;;;;;;;6.70;100.00;95617.38;10389469;28;20304;-64
2023/04/25 06:10:27;;;;;;;8.13;6.00;;;;;;;7.01;98.01;95599.34;10397773;28;20204;-65
2023/04/25 06:15:27;;;;;;;7.93;6.00;;;;;;;7.93;96.50;95596.50;10397403;28;20204;-65
2023/04/25 06:20:28;;;;;;;12.00;6.17;;;;;;;8.26;92.27;95591.16;10397049;28;20205;-65
2023/04/25 06:25:31;;;;;;;11.73;6.17;;;;;;;7.52;91.17;95580.13;10397031;28;20220;-66
2023/04/25 06:30:33;;;;;;;8.70;5.73;;;;;;;8.42;88.01;95563.34;10397033;28;20231;-66
2023/04/25 06:35:39;;;;;;;8.30;4.67;;;;;;;8.72;83.05;95530.41;10397002;28;20196;-67
2023/04/25 06:40:41;;;;;;;8.73;4.63;;;;;;;8.88;82.79;95551.19;10396010;28;20240;-65
2023/04/25 06:45:43;;;;;;;7.93;4.80;;;;;;;7.70;81.44;95546.84;10396080;28;20216;-66
2023/04/25 06:50:44;;;;;;;6.10;4.93;;;;;;;7.92;84.94;95581.84;10396224;28;20212;-66
2023/04/25 06:55:46;;;;;;;10.37;5.43;;;;;;;8.19;81.64;95551.06;10395423;28;20180;-66
2023/04/25 07:00:55;;;;;;;7.63;4.83;;;;;;;7.98;83.35;95567.31;10388282;28;20213;-65
2023/04/25 07:05:58;;;;;;;7.67;4.67;;;;;;;7.96;80.98;95553.63;10393808;28;20212;-64
2023/04/25 07:10:59;;;;;;;8.57;5.03;;;;;;;7.25;84.64;95592.53;10393852;28;20244;-65
2023/04/25 07:15:59;;;;;;;7.67;4.53;;;;;;;7.67;83.37;95588.88;10394558;28;20216;-65
2023/04/25 07:21:02;;;;;;;11.73;4.40;;;;;;;7.81;83.14;95583.00;10393402;28;20208;-66
2023/04/25 07:26:03;;;;;;;7.60;4.83;;;;;;;8.14;83.25;95590.72;10393281;28;20258;-64
2023/04/25 07:31:05;;;;;;;8.90;5.07;;;;;;;9.20;78.79;95554.50;10378994;28;20232;-66
2023/04/25 07:36:06;;;;;;;7.20;5.03;;;;;;;9.36;76.56;95535.28;10371503;28;20267;-66
2023/04/25 07:41:07;;;;;;;8.63;4.47;;;;;;;10.58;69.88;95479.06;10392515;28;20235;-65
2023/04/25 07:46:08;;;;;;;7.50;4.10;;;;;;;10.61;64.85;95426.31;10392284;28;21003;-65
2023/04/25 07:51:09;;;;;;;7.77;4.47;;;;;;;10.58;64.63;95423.25;10392541;28;20219;-66
2023/04/25 07:56:11;;;;;;;6.70;4.50;;;;;;;9.33;66.35;95440.75;10392437;28;20197;-66
2023/04/25 08:01:14;;;;;;;7.40;4.43;;;;;;;8.52;71.67;95517.81;10391880;28;20204;-66
2023/04/25 08:06:31;;;;;;;5.93;4.30;;;;;;;10.56;66.57;95465.31;10390657;28;20753;-66
2023/04/25 08:11:45;;;;;;;8.70;4.25;;;;;;;10.71;64.61;95462.66;10391955;28;20212;-66
2023/04/25 08:16:49;;;;;;;6.43;3.67;;;;;;;10.13;63.44;95444.31;10391996;28;20196;-64
2023/04/25 08:21:51;;;;;;;9.23;3.77;;;;;;;9.40;66.75;95491.28;10391589;28;20604;-65
2023/04/25 08:26:55;;;;;;;4.07;3.50;;;;;;;9.75;67.10;95497.59;10391621;28;20243;-65
2023/04/25 08:31:58;;;;;;;5.23;3.10;;;;;;;9.95;65.52;95502.28;10391750;28;20300;-66
2023/04/25 08:36:59;;;;;;;8.07;4.00;;;;;;;9.16;67.04;95516.69;10390590;28;20288;-65
2023/04/25 08:42:12;;;;;;;8.57;3.83;;;;;;;9.27;67.41;95539.75;10391132;28;20197;-65
2023/04/25 08:47:12;;;;;;;5.83;3.30;;;;;;;9.15;66.78;95530.72;10387957;28;20211;-65
2023/04/25 08:52:21;;;;;;;5.57;3.27;;;;;;;8.42;69.61;95572.00;10377339;28;20612;-66
2023/04/25 08:57:22;;;;;;;10.03;4.73;;;;;;;7.41;73.44;95610.78;10382543;28;20235;-66
2023/04/25 09:02:24;;;;;;;7.57;4.30;;;;;;;7.82;73.25;95610.69;10415393;28;20222;-65
2023/04/25 09:07:25;;;;;;;8.93;5.00;;;;;;;7.39;72.37;95583.25;10397325;28;20223;-65
2023/04/25 09:12:27;;;;;;;8.03;4.30;;;;;;;8.16;71.80;95600.97;10416326;28;20195;-64
2023/04/25 09:17:28;;;;;;;8.03;4.13;;;;;;;8.58;72.23;95618.13;10398344;28;20821;-65
2023/04/25 09:22:31;;;;;;;6.00;4.20;;;;;;;8.52;71.09;95603.16;10397961;28;20663;-65
2023/04/25 09:27:32;;;;;;;7.00;3.87;;;;;;;8.69;72.54;95637.81;10397897;28;20227;-65
2023/04/25 09:32:47;;;;;;;4.03;3.63;;;;;;;8.80;72.21;95634.81;10397729;28;20258;-65
2023/04/25 09:37:48;;;;;;;6.17;3.70;;;;;;;8.79;71.35;95619.31;10397067;28;20289;-65
2023/04/25 09:43:18;;;;;;;7.47;3.80;;;;;;;9.45;71.07;95635.34;10384927;28;20197;-66
2023/04/25 09:48:20;;;;;;;7.77;3.50;;;;;;;8.93;71.16;95636.88;10383810;28;20737;-66
2023/04/25 09:53:23;;;;;;;6.33;3.60;;;;;;;9.10;71.40;95648.81;10396906;28;20276;-64
2023/04/25 09:58:37;;;;;;;6.60;3.30;;;;;;;9.48;68.98;95610.63;10389412;28;20212;-65
2023/04/25 10:03:42;;;;;;;7.67;3.20;;;;;;;9.00;71.72;95658.69;10372199;28;20224;-66
2023/04/25 10:09:08;;;;;;;7.63;3.37;;;;;;;8.29;72.91;95670.91;10364877;28;20209;-65
2023/04/25 10:14:09;;;;;;;6.37;3.23;;;;;;;8.41;74.04;95700.88;10398160;28;20254;-66
2023/04/25 10:19:10;;;;;;;4.97;3.83;;;;;;;8.29;73.37;95689.16;10413735;28;20205;-65
2023/04/25 10:24:11;;;;;;;6.83;5.00;;;;;;;8.98;72.17;95672.91;10413423;28;20224;-65
2023/04/25 10:29:11;;;;;;;9.13;4.77;;;;;;;8.25;76.12;95732.22;10413332;28;20212;-65
2023/04/25 10:34:12;;;;;;;6.80;5.20;;;;;;;8.10;77.14;95743.34;10412986;28;20212;-64
2023/04/25 10:39:12;;;;;;;7.80;5.10;;;;;;;7.73;81.21;95786.34;10412673;28;20244;-64
2023/04/25 10:44:13;;;;;;;5.47;4.83;;;;;;;7.65;81.77;95773.31;10411474;28;20208;-65
2023/04/25 10:49:37;;;;;;;6.20;4.20;;;;;;;8.17;80.08;95757.34;10411611;28;20217;-65
2023/04/25 10:54:47;;;;;;;5.93;4.10;;;;;;;9.13;77.80;95725.22;10412400;28;20188;-63
2023/04/25 10:59:54;;;;;;;7.63;4.50;;;;;;;9.90;73.08;95680.72;10412018;28;20220;-66
2023/04/25 11:04:59;;;;;;;4.47;4.03;;;;;;;10.04;72.95;95680.91;10411662;28;20228;-65
2023/04/25 11:10:04;;;;;;;6.60;4.50;;;;;;;10.02;69.38;95643.66;10409843;28;20699;-66
2023/04/25 11:15:06;;;;;;;8.60;5.07;;;;;;;9.72;70.80;95669.75;10399026;28;20184;-65
2023/04/25 11:20:11;;;;;;;5.20;4.40;;;;;;;9.31;71.81;95676.13;10392837;28;20289;-64
2023/04/25 11:25:12;;;;;;;6.23;3.93;;;;;;;8.48;72.94;95701.03;10405801;28;20213;-64
2023/04/25 11:30:17;;;;;;;6.83;4.70;;;;;;;8.20;76.62;95761.41;10397865;28;20232;-65
2023/04/25 11:35:19;;;;;;;8.63;6.10;;;;;;;7.53;81.22;95805.88;10399489;28;20192;-65
2023/04/25 11:40:19;;;;;;;8.80;6.33;;;;;;;7.26;84.14;95826.00;10409525;28;20369;-64
2023/04/25 11:45:20;;;;;;;10.77;7.47;;;;;;;7.41;85.97;95828.81;10424277;28;20278;-65
2023/04/25 11:50:21;;;;;;;11.67;9.00;;;;;;;7.41;86.65;95834.03;10393973;28;20299;-66
2023/04/25 11:55:21;;;;;;;16.20;11.23;;;;;;;7.24;90.30;95856.59;10410529;28;20241;-65
2023/04/25 12:00:22;;;;;;;17.20;11.00;;;;;;;7.32;91.52;95848.84;10404252;28;20247;-64
2023/04/25 12:05:30;;;;;;;16.63;9.17;;;;;;;7.58;87.77;95819.22;10412917;28;20766;-64
2023/04/25 12:10:30;;;;;;;16.30;7.93;;;;;;;7.76;85.13;95812.09;10409932;28;20263;-65
2023/04/25 12:15:33;;;;;;;12.17;7.27;;;;;;;7.73;84.31;95811.59;10409769;28;20227;-65
2023/04/25 12:20:33;;;;;;;12.27;4.40;;;;;;;7.67;82.08;95802.63;10417559;28;20219;-64
2023/04/25 12:25:42;;;;;;;8.43;4.63;;;;;;;7.54;83.27;95807.53;10457277;28;20242;-66
2023/04/25 12:31:02;;;;;;;10.20;4.87;;;;;;;8.51;80.78;95792.84;10458991;28;20222;-66
2023/04/25 12:36:08;;;;;;;6.30;3.20;;;;;;;10.29;73.17;95724.19;10435069;28;20196;-66
2023/04/25 12:41:08;;;;;;;5.83;2.80;;;;;;;10.10;70.40;95699.31;10416891;28;20290;-65
2023/04/25 12:46:09;;;;;;;8.00;3.00;;;;;;;10.36;67.56;95674.56;10401783;28;20693;-65
2023/04/25 12:51:09;;;;;;;9.97;3.00;;;;;;;9.57;72.07;95750.78;10405629;28;20646;-64
2023/04/25 12:56:09;;;;;;;12.50;3.50;;;;;;;9.03;72.97;95760.22;10399130;28;20311;-64
2023/04/25 13:01:11;;;;;;;10.47;3.47;;;;;;;8.68;73.96;95764.09;10396025;28;20212;-65
2023/04/25 13:06:12;;;;;;;12.37;3.47;;;;;;;8.47;74.65;95778.53;10400464;28;20224;-65
2023/04/25 13:11:31;;;;;;;7.47;3.93;;;;;;;8.03;75.74;95782.28;10417014;28;20228;-65
2023/04/25 13:16:31;;;;;;;7.53;3.20;;;;;;;7.98;75.73;95789.00;10432375;28;20517;-65
2023/04/25 13:21:32;;;;;;;15.90;4.53;;;;;;;8.06;77.13;95822.09;10456954;28;20212;-64
2023/04/25 13:26:32;;;;;;;11.30;4.00;;;;;;;7.59;78.41;95836.50;10430468;28;20250;-65
2023/04/25 13:31:33;;;;;;;9.97;4.00;;;;;;;7.00;80.03;95857.28;10414748;28;20217;-65
2023/04/25 13:36:33;;;;;;;10.03;5.20;;;;;;;6.73;81.05;95851.31;10440041;28;20591;-64
2023/04/25 13:41:34;;;;;;;11.53;4.90;;;;;;;6.83;81.14;95859.00;10421717;28;20840;-63
2023/04/25 13:46:34;;;;;;;12.40;4.97;;;;;;;6.74;81.47;95864.16;10414815;28;20308;-63
2023/04/25 13:51:35;;;;;;;10.10;4.23;;;;;;;6.99;83.26;95885.13;10397109;28;20255;-63
2023/04/25 13:56:35;;;;;;;11.93;4.93;;;;;;;7.08;81.96;95881.59;10413386;28;20200;-64
2023/04/25 14:01:35;;;;;;;12.27;5.40;;;;;;;6.96;81.93;95880.22;10390097;28;20267;-65
2023/04/25 14:06:36;;;;;;;13.53;5.17;;;;;;;7.33;82.96;95897.34;10397202;28;20236;-65
2023/04/25 14:11:36;;;;;;;17.30;5.87;;;;;;;7.54;82.01;95883.09;10412164;28;20217;-64
2023/04/25 14:16:37;;;;;;;15.97;4.60;;;;;;;7.70;80.02;95864.06;10413805;28;20672;-65
2023/04/25 14:21:37;;;;;;;14.80;5.13;;;;;;;7.63;80.47;95876.94;10413532;28;20289;-65
2023/04/25 14:26:37;;;;;;;12.60;4.57;;;;;;;7.81;81.14;95895.03;10413396;28;20675;-65
2023/04/25 14:31:39;;;;;;;12.30;4.80;;;;;;;7.42;80.97;95885.97;10394194;28;20641;-64
2023/04/25 14:36:39;;;;;;;15.47;5.07;;;;;;;7.07;82.99;95913.00;10413377;28;20198;-65
2023/04/25 14:41:40;;;;;;;25.13;6.80;;;;;;;6.42;81.59;95893.38;10395139;28;20248;-65
2023/04/25 14:46:40;;;;;;;14.57;6.37;;;;;;;6.29;85.95;95935.38;10407409;28;20295;-65
2023/04/25 14:51:41;;;;;;;15.37;7.07;;;;;;;7.40;86.45;95944.44;10371371;28;20562;-66
2023/04/25 14:56:41;;;;;;;20.27;5.17;;;;;;;10.74;71.87;95809.88;10382687;28;21038;-66
2023/04/25 15:01:41;;;;;;;17.93;5.90;;;;;;;10.71;68.98;95780.41;10400544;28;20224;-65
2023/04/25 15:06:42;;;;;;;12.33;4.57;;;;;;;10.01;70.59;95812.91;10402833;28;20212;-64
2023/04/25 15:11:42;;;;;;;17.70;5.10;;;;;;;9.00;73.98;95848.56;10400984;28;20219;-65
2023/04/25 15:16:42;;;;;;;16.13;6.23;;;;;;;8.21;77.01;95876.03;10389492;28;20275;-65
2023/04/25 15:21:43;;;;;;;13.83;5.80;;;;;;;7.91;77.59;95884.50;10395501;28;20224;-65
2023/04/25 15:26:43;;;;;;;21.60;7.00;;;;;;;7.32;80.20;95911.34;10388572;28;20235;-64
2023/04/25 15:31:44;;;;;;;15.27;5.90;;;;;;;6.77;83.58;95947.16;10388799;28;20204;-63
2023/04/25 15:36:45;;;;;;;18.90;7.00;;;;;;;6.56;87.36;95976.09;10406755;28;20288;-65
2023/04/25 15:41:46;;;;;;;19.87;4.80;;;;;;;6.15;87.99;95977.50;10407794;28;20232;-65
2023/04/25 15:46:46;;;;;;;10.73;3.60;;;;;;;5.86;84.38;95953.28;10407780;28;20307;-66
2023/04/25 15:51:47;;;;;;;8.27;3.40;;;;;;;5.85;79.94;95912.69;10407292;28;20220;-66
2023/04/25 15:56:47;;;;;;;11.90;3.77;;;;;;;5.88;77.87;95909.78;10403701;28;20920;-63
2023/04/25 16:01:48;;;;;;;9.43;3.20;;;;;;;5.74;78.19;95907.66;10389719;28;20303;-64
2023/04/25 16:06:48;;;;;;;8.37;3.20;;;;;;;5.74;77.49;95899.06;10396383;28;20228;-64
2023/04/25 16:11:48;;;;;;;11.33;3.13;;;;;;;5.70;76.13;95881.16;10405792;28;20270;-65
2023/04/25 16:16:49;;;;;;;9.90;3.07;;;;;;;5.72;77.35;95902.63;10397488;28;20205;-65
2023/04/25 16:21:50;;;;;;;9.43;3.20;;;;;;;5.67;77.07;95904.84;10370072;28;20267;-64
2023/04/25 16:26:51;;;;;;;12.90;3.77;;;;;;;6.23;75.25;95881.34;10369927;28;20228;-65
2023/04/25 16:31:51;;;;;;;12.20;3.63;;;;;;;6.34;73.70;95878.53;10370079;28;20216;-65
2023/04/25 16:36:52;;;;;;;11.60;3.97;;;;;;;6.59;71.84;95844.88;10369437;28;20220;-65
2023/04/25 16:41:53;;;;;;;16.30;3.20;;;;;;;6.97;70.28;95845.41;10412263;23;20247;-63
2023/04/25 16:46:53;;;;;;;8.27;3.03;;;;;;;7.00;71.24;95857.28;10409706;28;20228;-63
2023/04/25 16:51:53;;;;;;;6.47;2.90;;;;;;;6.68;69.95;95843.97;10409345;28;20239;-63
2023/04/25 16:56:54;;;;;;;11.53;3.30;;;;;;;6.62;69.45;95836.78;10392077;28;20193;-62
2023/04/25 17:01:54;;;;;;;15.07;3.07;;;;;;;6.51;72.18;95899.44;10408941;28;20215;-63
2023/04/25 17:06:54;;;;;;;7.23;2.70;;;;;;;6.57;71.45;95878.03;10409088;28;20581;-63
2023/04/25 17:11:55;;;;;;;13.27;3.13;;;;;;;6.59;71.34;95896.94;10405799;28;20690;-62
2023/04/25 17:16:55;;;;;;;5.23;2.67;;;;;;;6.52;70.76;95899.31;10394080;28;20707;-62
2023/04/25 17:21:56;;;;;;;8.00;2.53;;;;;;;6.38;72.20;95925.88;10407540;28;20597;-61
2023/04/25 17:26:56;;;;;;;10.37;2.43;;;;;;;6.24;68.43;95854.38;10416023;28;20632;-63
2023/04/25 17:31:57;;;;;;;11.33;2.50;;;;;;;5.94;66.70;95834.75;10415853;28;20235;-61
2023/04/25 17:36:57;;;;;;;5.00;2.87;;;;;;;5.94;67.16;95853.78;10415789;28;20189;-62
2023/04/25 17:41:58;;;;;;;7.03;2.43;;;;;;;5.90;68.69;95865.44;10415307;28;20704;-62
2023/04/25 17:47:00;;;;;;;9.97;3.80;;;;;;;5.79;68.78;95878.63;10415473;28;20220;-62
2023/04/25 17:52:00;;;;;;;8.93;2.47;;;;;;;5.68;68.90;95884.88;10414955;28;20232;-62
2023/04/25 17:57:01;;;;;;;5.20;2.33;;;;;;;5.59;69.11;95903.94;10415124;28;20703;-61
2023/04/25 18:02:02;;;;;;;13.90;2.60;;;;;;;5.71;69.76;95915.75;10414569;28;20323;-62
2023/04/25 18:07:02;;;;;;;9.13;2.43;;;;;;;5.58;69.18;95916.13;10414501;28;20259;-62
2023/04/25 18:12:03;;;;;;;7.13;2.20;;;;;;;5.49;71.26;95955.94;10414238;28;20256;-63
2023/04/25 18:17:05;;;;;;;9.83;2.47;;;;;;;5.38;71.99;95971.72;10414264;28;20181;-62
2023/04/25 18:22:06;;;;;;;7.10;3.03;;;;;;;5.26;73.18;95981.47;10413597;28;20240;-62
2023/04/25 18:27:06;;;;;;;5.80;3.00;;;;;;;5.11;73.45;95984.50;10413736;28;20296;-63
2023/04/25 18:32:06;;;;;;;10.20;3.63;;;;;;;5.17;71.75;95972.72;10413689;28;20224;-63
2023/04/25 18:37:07;;;;;;;12.10;3.23;;;;;;;5.11;71.58;95962.91;10413634;28;20542;-63
2023/04/25 18:42:07;;;;;;;4.90;2.20;;;;;;;5.12;71.07;95967.16;10412808;28;20232;-63
2023/04/25 18:47:09;;;;;;;5.23;2.40;;;;;;;4.82;73.57;96007.91;10413451;28;20216;-63
2023/04/25 18:52:11;;;;;;;32.67;12.10;;;;;;;4.33;76.33;96059.75;10412854;28;20698;-63
2023/04/25 18:57:13;;;;;;;11.83;4.97;;;;;;;3.85;79.65;96100.13;10411838;28;20185;-63
2023/04/25 19:02:15;;;;;;;8.33;2.83;;;;;;;3.53;81.03;96103.66;10404134;28;20217;-64
2023/04/25 19:07:16;;;;;;;9.17;3.00;;;;;;;3.13;82.01;96109.53;10376509;28;20251;-63
2023/04/25 19:12:16;;;;;;;6.30;2.60;;;;;;;3.16;83.35;96118.84;10371633;28;20201;-62
2023/04/25 19:17:16;;;;;;;273.13;77.93;;;;;;;3.26;84.14;96126.66;10353668;28;20194;-63
2023/04/25 19:22:17;;;;;;;22.87;9.87;;;;;;;3.31;83.57;96112.41;10370806;28;20213;-63
2023/04/25 19:27:17;;;;;;;131.83;51.67;;;;;;;3.30;84.44;96121.09;10371576;28;20303;-63
2023/04/25 19:32:17;;;;;;;12.60;4.20;;;;;;;3.45;83.43;96111.25;10370439;28;20212;-61
2023/04/25 19:37:19;;;;;;;8.50;2.77;;;;;;;3.44;82.12;96095.84;10371123;28;20276;-63
2023/04/25 19:42:19;;;;;;;6.77;2.63;;;;;;;3.27;85.07;96136.88;10370887;28;21002;-62
2023/04/25 19:47:19;;;;;;;5.13;2.73;;;;;;;3.17;84.54;96135.97;10371006;28;20264;-62
2023/04/25 19:52:20;;;;;;;5.40;2.70;;;;;;;3.12;81.96;96094.94;10370758;28;20216;-62
2023/04/25 19:57:20;;;;;;;7.80;2.43;;;;;;;3.18;81.21;96098.81;10370613;28;20302;-62
2023/04/25 20:02:21;;;;;;;7.23;2.43;;;;;;;3.04;81.19;96105.13;10370776;28;20217;-61
2023/04/25 20:07:22;;;;;;;8.93;2.67;;;;;;;2.86;82.13;96112.59;10370084;28;20256;-61
2023/04/25 20:12:22;;;;;;;10.37;3.23;;;;;;;2.50;83.73;96133.50;10370284;28;20201;-61
2023/04/25 20:17:23;;;;;;;7.97;2.97;;;;;;;2.32;86.10;96153.03;10370217;28;20271;-61
2023/04/25 20:22:24;;;;;;;6.47;2.80;;;;;;;1.94;88.73;96172.31;10369997;28;20271;-62
2023/04/25 20:27:24;;;;;;;6.73;3.13;;;;;;;1.51;90.86;96176.34;10370186;28;20262;-61
2023/04/25 20:32:25;;;;;;;8.73;2.97;;;;;;;1.25;93.49;96188.59;10369472;28;20216;-61
2023/04/25 20:37:26;;;;;;;7.57;3.20;;;;;;;1.15;95.91;96198.75;10370212;28;20197;-61
2023/04/25 20:42:26;;;;;;;8.43;3.23;;;;;;;1.03;97.51;96203.03;10369428;28;20248;-62
2023/04/25 20:47:27;;;;;;;11.53;3.90;;;;;;;1.10;98.92;96202.59;10377866;28;20221;-62
2023/04/25 20:52:28;;;;;;;9.77;3.43;;;;;;;0.94;100.00;96208.84;10377649;28;20615;-62
2023/04/25 20:57:28;;;;;;;7.60;3.30;;;;;;;0.88;100.00;96193.81;10377242;28;20196;-63
2023/04/25 21:02:29;;;;;;;9.03;3.50;;;;;;;0.80;100.00;96207.25;10377123;28;20221;-61
2023/04/25 21:07:30;;;;;;;14.63;3.60;;;;;;;0.77;100.00;96204.09;10376510;28;20221;-63
2023/04/25 21:12:30;;;;;;;9.13;3.37;;;;;;;0.67;100.00;96221.94;10377091;28;20574;-62
2023/04/25 21:17:30;;;;;;;5.40;3.03;;;;;;;0.55;100.00;96217.66;10376750;28;20224;-62
2023/04/25 21:22:32;;;;;;;14.20;3.43;;;;;;;0.57;100.00;96214.03;10376319;28;20212;-62
2023/04/25 21:27:32;;;;;;;8.20;3.00;;;;;;;0.70;100.00;96214.84;10376524;28;20228;-62
2023/04/25 21:32:34;;;;;;;11.40;3.40;;;;;;;0.74;100.00;96209.47;10375805;28;20603;-61
2023/04/25 21:37:35;;;;;;;7.00;3.13;;;;;;;0.91;100.00;96213.41;10376149;28;20180;-61
2023/04/25 21:42:35;;;;;;;5.37;3.17;;;;;;;0.99;100.00;96222.25;10375633;28;20262;-61
2023/04/25 21:47:36;;;;;;;8.40;3.37;;;;;;;0.98;100.00;96224.94;10374253;28;20228;-62
2023/04/25 21:52:37;;;;;;;12.27;3.50;;;;;;;0.99;100.00;96232.56;10375496;28;20197;-62
2023/04/25 21:57:37;;;;;;;10.23;3.60;;;;;;;1.23;100.00;96224.00;10374280;28;20189;-62
2023/04/25 22:02:38;;;;;;;7.67;2.80;;;;;;;1.73;100.00;96222.06;10375022;28;20200;-61
2023/04/25 22:07:39;;;;;;;6.47;2.67;;;;;;;2.09;100.00;96217.66;10374578;28;20229;-63
2023/04/25 22:12:39;;;;;;;6.67;2.73;;;;;;;2.46;98.65;96216.59;10374725;28;20224;-62
2023/04/25 22:17:40;;;;;;;10.87;3.13;;;;;;;2.68;96.09;96215.78;10374169;28;20239;-63
2023/04/25 22:22:40;;;;;;;9.37;3.07;;;;;;;2.84;93.41;96212.78;10373966;28;20185;-62
2023/04/25 22:27:41;;;;;;;6.60;2.50;;;;;;;2.97;93.52;96231.59;10373989;28;20275;-62
2023/04/25 22:32:42;;;;;;;7.10;2.93;;;;;;;3.04;95.11;96256.00;10373853;28;20190;-63
2023/04/25 22:37:42;;;;;;;11.07;3.50;;;;;;;2.92;98.78;96262.16;10373738;28;20192;-61
2023/04/25 22:42:43;;;;;;;12.37;3.37;;;;;;;2.85;100.00;96281.69;10418684;23;20240;-65
2023/04/25 22:47:43;;;;;;;6.77;2.63;;;;;;;2.83;100.00;96283.56;10414199;28;20230;-65
2023/04/25 22:52:45;;;;;;;8.70;3.57;;;;;;;2.35;100.00;96287.22;10413890;28;20204;-66
2023/04/25 22:57:45;;;;;;;6.37;2.67;;;;;;;2.48;100.00;96290.53;10413803;28;20235;-66
2023/04/25 23:02:46;;;;;;;4.67;3.13;;;;;;;2.35;100.00;96283.81;10413472;28;20286;-65
2023/04/25 23:07:47;;;;;;;5.27;3.27;;;;;;;2.37;100.00;96300.84;10412306;28;20208;-65
2023/04/25 23:12:47;;;;;;;12.70;3.80;;;;;;;2.29;100.00;96295.44;10413041;28;20263;-65
2023/04/25 23:17:48;;;;;;;11.20;3.50;;;;;;;2.24;100.00;96297.56;10413023;28;20200;-65
2023/04/25 23:22:48;;;;;;;9.03;3.23;;;;;;;2.08;100.00;96296.13;10412908;28;20212;-65
2023/04/25 23:27:49;;;;;;;11.37;3.77;;;;;;;2.03;100.00;96294.81;10412427;28;20226;-64